createdAt,value
2018-09-20T00:00:41.026Z,17.90
2018-09-20T00:03:09.452Z,17.90
2018-09-20T00:05:37.882Z,17.90
2018-09-20T00:08:06.344Z,17.80
2018-09-20T00:10:34.818Z,17.80
2018-09-20T00:13:03.258Z,17.80
2018-09-20T00:15:31.695Z,17.80
2018-09-20T00:18:00.151Z,17.80
2018-09-20T00:20:28.574Z,17.70
2018-09-20T00:22:57.006Z,17.80
2018-09-20T00:25:25.528Z,17.80
2018-09-20T00:27:53.951Z,17.80
2018-09-20T00:30:22.411Z,17.80
2018-09-20T00:32:50.880Z,17.70
2018-09-20T00:35:19.324Z,17.80
2018-09-20T00:37:47.750Z,17.70
2018-09-20T00:40:16.231Z,17.70
2018-09-20T00:42:44.682Z,17.70
2018-09-20T00:45:14.248Z,17.70
2018-09-20T00:47:42.725Z,17.70
2018-09-20T00:50:11.170Z,17.70
2018-09-20T00:52:39.634Z,17.70
2018-09-20T00:55:08.177Z,17.70
2018-09-20T00:57:36.628Z,17.70
2018-09-20T01:00:05.102Z,17.70
2018-09-20T01:02:33.579Z,17.70
2018-09-20T01:05:02.057Z,17.70
2018-09-20T01:07:30.521Z,17.70
2018-09-20T01:09:59.098Z,17.70
2018-09-20T01:12:27.549Z,17.60
2018-09-20T01:14:55.995Z,17.60
2018-09-20T01:17:24.526Z,17.60
2018-09-20T01:19:52.978Z,17.60
2018-09-20T01:22:21.425Z,17.60
2018-09-20T01:24:49.923Z,17.50
2018-09-20T01:27:18.366Z,17.50
2018-09-20T01:29:46.817Z,17.50
2018-09-20T01:32:15.311Z,17.50
2018-09-20T01:34:43.772Z,17.60
2018-09-20T01:37:12.206Z,17.60
2018-09-20T01:39:40.709Z,17.60
2018-09-20T01:42:09.137Z,17.60
2018-09-20T01:44:37.574Z,17.60
2018-09-20T01:47:06.106Z,17.70
2018-09-20T01:49:34.525Z,17.70
2018-09-20T01:52:02.978Z,17.70
2018-09-20T01:54:31.454Z,17.70
2018-09-20T01:56:59.905Z,17.70
2018-09-20T01:59:28.330Z,17.70
2018-09-20T02:01:56.794Z,17.70
2018-09-20T02:04:25.227Z,17.70
2018-09-20T02:06:53.681Z,17.70
2018-09-20T02:09:22.175Z,17.70
2018-09-20T02:11:50.597Z,17.70
2018-09-20T02:14:19.033Z,17.70
2018-09-20T02:16:47.490Z,17.60
2018-09-20T02:19:15.940Z,17.60
2018-09-20T02:21:44.399Z,17.60
2018-09-20T02:24:12.878Z,17.60
2018-09-20T02:26:41.344Z,17.60
2018-09-20T02:29:09.815Z,17.60
2018-09-20T02:31:38.357Z,17.60
2018-09-20T02:34:06.874Z,17.60
2018-09-20T02:36:35.310Z,17.60
2018-09-20T02:39:04.631Z,17.60
2018-09-20T02:41:33.078Z,17.70
2018-09-20T02:44:01.539Z,17.70
2018-09-20T02:46:30.028Z,17.70
2018-09-20T02:49:09.541Z,17.80
2018-09-20T02:51:38.095Z,17.80
2018-09-20T02:54:06.587Z,17.80
2018-09-20T02:56:35.138Z,17.90
2018-09-20T02:59:03.699Z,17.90
2018-09-20T03:01:32.203Z,17.90
2018-09-20T03:04:00.646Z,18.00
2018-09-20T03:06:29.138Z,17.90
2018-09-20T03:08:57.590Z,18.00
2018-09-20T03:11:26.066Z,18.00
2018-09-20T03:13:54.726Z,17.90
2018-09-20T03:16:23.179Z,17.90
2018-09-20T03:18:51.632Z,17.90
2018-09-20T03:21:20.105Z,17.90
2018-09-20T03:23:48.542Z,17.90
2018-09-20T03:26:16.990Z,17.90
2018-09-20T03:28:45.515Z,17.90
2018-09-20T03:31:13.997Z,17.90
2018-09-20T03:33:42.441Z,17.90
2018-09-20T03:36:10.994Z,17.90
2018-09-20T03:38:39.450Z,17.90
2018-09-20T03:41:07.887Z,17.90
2018-09-20T03:43:36.446Z,17.80
2018-09-20T03:46:04.934Z,17.80
2018-09-20T03:48:33.493Z,17.70
2018-09-20T03:51:01.979Z,17.70
2018-09-20T03:53:30.390Z,17.70
2018-09-20T03:55:58.840Z,17.70
2018-09-20T03:58:27.307Z,17.70
2018-09-20T04:00:55.758Z,17.70
2018-09-20T04:03:24.202Z,17.70
2018-09-20T04:05:52.677Z,17.60
2018-09-20T04:08:21.107Z,17.70
2018-09-20T04:10:49.523Z,17.70
2018-09-20T04:13:18.057Z,17.60
2018-09-20T04:15:46.990Z,17.60
2018-09-20T04:18:15.407Z,17.60
2018-09-20T04:20:43.986Z,17.60
2018-09-20T04:23:12.450Z,17.60
2018-09-20T04:25:40.907Z,17.60
2018-09-20T04:28:09.437Z,17.60
2018-09-20T04:30:37.889Z,17.50
2018-09-20T04:33:06.412Z,17.50
2018-09-20T04:35:34.891Z,17.50
2018-09-20T04:38:03.356Z,17.50
2018-09-20T04:40:31.794Z,17.40
2018-09-20T04:43:00.314Z,17.40
2018-09-20T04:45:28.859Z,17.40
2018-09-20T04:47:57.348Z,17.40
2018-09-20T04:50:25.866Z,17.40
2018-09-20T04:52:54.306Z,17.40
2018-09-20T04:55:22.764Z,17.40
2018-09-20T04:57:51.289Z,17.40
2018-09-20T05:00:19.738Z,17.50
2018-09-20T05:02:48.174Z,17.50
2018-09-20T05:05:16.708Z,17.60
2018-09-20T05:07:45.174Z,17.60
2018-09-20T05:10:13.627Z,17.60
2018-09-20T05:12:42.095Z,17.70
2018-09-20T05:15:10.562Z,17.70
2018-09-20T05:17:39.011Z,17.80
2018-09-20T05:20:07.584Z,17.80
2018-09-20T05:22:36.018Z,17.90
2018-09-20T05:25:04.542Z,17.90
2018-09-20T05:27:33.092Z,17.90
2018-09-20T05:30:01.551Z,17.90
2018-09-20T05:32:30.600Z,17.90
2018-09-20T05:34:59.147Z,17.80
2018-09-20T05:37:27.616Z,17.80
2018-09-20T05:39:56.107Z,17.80
2018-09-20T05:42:24.619Z,17.80
2018-09-20T05:44:53.106Z,17.80
2018-09-20T05:47:21.561Z,17.80
2018-09-20T05:49:50.058Z,17.80
2018-09-20T05:52:18.478Z,17.80
2018-09-20T05:54:47.125Z,17.80
2018-09-20T05:57:15.694Z,17.80
2018-09-20T05:59:44.155Z,17.80
2018-09-20T06:02:12.598Z,17.80
2018-09-20T06:04:41.054Z,17.80
2018-09-20T06:07:09.478Z,17.80
2018-09-20T06:09:53.666Z,17.80
2018-09-20T06:12:22.152Z,17.80
2018-09-20T06:14:50.590Z,17.80
2018-09-20T06:17:19.082Z,17.80
2018-09-20T06:19:48.208Z,17.90
2018-09-20T06:22:16.642Z,17.90
2018-09-20T06:24:45.126Z,18.00
2018-09-20T06:27:13.642Z,18.00
2018-09-20T06:29:42.062Z,18.10
2018-09-20T06:32:10.523Z,18.10
2018-09-20T06:34:38.943Z,18.20
2018-09-20T06:37:07.672Z,18.10
2018-09-20T06:39:36.162Z,18.20
2018-09-20T06:42:04.598Z,18.20
2018-09-20T06:44:33.042Z,18.20
2018-09-20T06:47:01.493Z,18.30
2018-09-20T06:49:29.983Z,18.40
2018-09-20T06:51:58.434Z,18.40
2018-09-20T06:54:28.662Z,18.40
2018-09-20T06:56:57.078Z,18.50
2018-09-20T06:59:25.526Z,18.60
2018-09-20T07:01:54.039Z,18.70
2018-09-20T07:04:22.523Z,18.70
2018-09-20T07:06:50.970Z,18.80
2018-09-20T07:09:19.439Z,18.80
2018-09-20T07:11:47.926Z,18.90
2018-09-20T07:14:16.431Z,19.00
2018-09-20T07:16:44.987Z,19.10
2018-09-20T07:19:13.404Z,19.10
2018-09-20T07:21:41.822Z,19.20
2018-09-20T07:24:10.346Z,19.20
2018-09-20T07:26:38.786Z,19.30
2018-09-20T07:29:07.214Z,19.30
2018-09-20T07:31:35.744Z,19.40
2018-09-20T07:34:04.178Z,19.40
2018-09-20T07:36:32.602Z,19.50
2018-09-20T07:39:01.371Z,19.50
2018-09-20T07:41:29.798Z,19.60
2018-09-20T07:43:58.226Z,19.60
2018-09-20T07:46:26.734Z,19.70
2018-09-20T07:48:55.199Z,19.80
2018-09-20T07:51:23.628Z,19.80
2018-09-20T07:53:52.147Z,19.90
2018-09-20T07:56:20.607Z,20.00
2018-09-20T07:58:49.058Z,20.10
2018-09-20T08:01:17.508Z,20.10
2018-09-20T08:03:45.941Z,20.30
2018-09-20T08:06:14.362Z,20.30
2018-09-20T08:08:42.846Z,20.30
2018-09-20T08:11:11.266Z,20.40
2018-09-20T08:13:39.690Z,20.40
2018-09-20T08:16:08.300Z,20.30
2018-09-20T08:18:36.746Z,20.30
2018-09-20T08:21:05.182Z,20.30
2018-09-20T08:23:33.666Z,20.40
2018-09-20T08:26:02.087Z,20.50
2018-09-20T08:28:30.510Z,20.70
2018-09-20T08:30:58.970Z,20.80
2018-09-20T08:33:27.467Z,21.00
2018-09-20T08:35:55.910Z,21.10
2018-09-20T08:38:24.410Z,21.10
2018-09-20T08:40:52.874Z,21.20
2018-09-20T08:43:21.333Z,21.30
2018-09-20T08:45:49.830Z,21.30
2018-09-20T08:48:18.254Z,21.30
2018-09-20T08:50:46.786Z,21.20
2018-09-20T08:53:15.373Z,21.20
2018-09-20T08:55:43.822Z,21.20
2018-09-20T08:58:12.258Z,21.10
2018-09-20T09:00:40.818Z,21.10
2018-09-20T09:03:09.287Z,21.10
2018-09-20T09:05:37.779Z,21.10
2018-09-20T09:08:06.335Z,21.10
2018-09-20T09:10:34.797Z,21.10
2018-09-20T09:13:03.238Z,21.00
2018-09-20T09:15:31.764Z,20.90
2018-09-20T09:18:00.226Z,20.80
2018-09-20T09:20:28.881Z,20.80
2018-09-20T09:22:57.454Z,20.90
2018-09-20T09:25:25.924Z,20.90
2018-09-20T09:27:54.411Z,21.10
2018-09-20T09:30:22.966Z,21.20
2018-09-20T09:32:51.434Z,21.30
2018-09-20T09:35:20.028Z,21.40
2018-09-20T09:37:48.554Z,21.50
2018-09-20T09:40:17.370Z,21.60
2018-09-20T09:42:45.829Z,21.60
2018-09-20T09:45:14.298Z,21.60
2018-09-20T09:47:42.746Z,21.70
2018-09-20T09:50:11.215Z,21.70
2018-09-20T09:52:39.727Z,21.70
2018-09-20T09:55:08.203Z,21.80
2018-09-20T09:57:36.709Z,21.90
2018-09-20T10:00:05.694Z,21.80
2018-09-20T10:02:34.200Z,21.80
2018-09-20T10:05:02.710Z,21.90
2018-09-20T10:07:31.203Z,22.00
2018-09-20T10:09:59.703Z,22.10
2018-09-20T10:12:28.170Z,22.20
2018-09-20T10:14:56.714Z,22.40
2018-09-20T10:17:25.206Z,22.40
2018-09-20T10:19:53.691Z,22.30
2018-09-20T10:22:22.243Z,22.20
2018-09-20T10:24:50.690Z,22.10
2018-09-20T10:27:19.298Z,22.00
2018-09-20T10:29:47.787Z,21.90
2018-09-20T10:32:16.231Z,21.80
2018-09-20T10:34:44.698Z,21.80
2018-09-20T10:37:13.170Z,21.70
2018-09-20T10:39:41.633Z,21.60
2018-09-20T10:42:10.118Z,21.50
2018-09-20T10:44:38.578Z,21.40
2018-09-20T10:47:07.104Z,21.50
2018-09-20T10:49:35.483Z,21.50
2018-09-20T10:52:04.014Z,21.50
2018-09-20T10:54:32.460Z,21.40
2018-09-20T10:57:01.023Z,21.40
2018-09-20T10:59:29.598Z,21.50
2018-09-20T11:01:58.075Z,21.50
2018-09-20T11:04:26.486Z,21.50
2018-09-20T11:06:54.987Z,21.70
2018-09-20T11:09:23.421Z,21.90
2018-09-20T11:11:51.854Z,22.00
2018-09-20T11:14:20.319Z,22.00
2018-09-20T11:16:48.779Z,22.00
2018-09-20T11:19:17.187Z,22.00
2018-09-20T11:21:45.698Z,21.90
2018-09-20T11:24:14.150Z,21.80
2018-09-20T11:26:42.602Z,21.80
2018-09-20T11:29:11.098Z,21.70
2018-09-20T11:31:39.898Z,21.70
2018-09-20T11:34:08.438Z,21.80
2018-09-20T11:36:37.031Z,21.90
2018-09-20T11:39:07.806Z,22.00
2018-09-20T11:41:36.278Z,22.10
2018-09-20T11:44:04.815Z,22.20
2018-09-20T11:46:33.295Z,22.30
2018-09-20T11:49:01.778Z,22.40
2018-09-20T11:51:30.274Z,22.40
2018-09-20T11:53:58.720Z,22.50
2018-09-20T11:56:27.203Z,22.50
2018-09-20T11:58:55.698Z,22.50
2018-09-20T12:01:24.244Z,22.50
2018-09-20T12:03:52.654Z,22.60
2018-09-20T12:06:21.166Z,22.70
2018-09-20T12:08:49.602Z,22.70
2018-09-20T12:11:18.022Z,22.70
2018-09-20T12:13:46.511Z,22.60
2018-09-20T12:16:14.974Z,22.50
2018-09-20T12:18:43.606Z,22.60
2018-09-20T12:21:12.114Z,22.60
2018-09-20T12:23:40.566Z,22.60
2018-09-20T12:26:08.988Z,22.60
2018-09-20T12:28:37.486Z,22.70
2018-09-20T12:31:06.042Z,22.80
2018-09-20T12:33:34.462Z,22.90
2018-09-20T12:36:03.153Z,23.00
2018-09-20T12:38:31.450Z,22.90
2018-09-20T12:40:59.875Z,22.70
2018-09-20T12:43:28.343Z,22.50
2018-09-20T12:45:56.796Z,22.40
2018-09-20T12:48:25.357Z,22.30
2018-09-20T12:50:53.747Z,22.20
2018-09-20T12:53:22.210Z,22.10
2018-09-20T12:55:50.665Z,22.10
2018-09-20T12:58:21.272Z,22.00
2018-09-20T13:00:49.777Z,22.00
2018-09-20T13:03:18.226Z,21.90
2018-09-20T13:05:46.790Z,21.90
2018-09-20T13:08:15.238Z,21.90
2018-09-20T13:10:43.854Z,21.90
2018-09-20T13:13:12.363Z,21.90
2018-09-20T13:15:40.819Z,22.00
2018-09-20T13:18:09.294Z,22.10
2018-09-20T13:20:37.839Z,22.20
2018-09-20T13:23:06.286Z,22.20
2018-09-20T13:25:34.815Z,22.20
2018-09-20T13:28:03.299Z,22.20
2018-09-20T13:30:31.770Z,22.20
2018-09-20T13:33:00.202Z,22.30
2018-09-20T13:35:28.817Z,22.30
2018-09-20T13:37:57.274Z,22.30
2018-09-20T13:40:25.750Z,22.40
2018-09-20T13:42:54.246Z,22.40
2018-09-20T13:45:22.786Z,22.50
2018-09-20T13:47:51.235Z,22.50
2018-09-20T13:50:19.763Z,22.50
2018-09-20T13:52:48.298Z,22.40
2018-09-20T13:55:16.791Z,22.30
2018-09-20T13:57:45.294Z,22.40
2018-09-20T14:00:13.795Z,22.40
2018-09-20T14:02:42.418Z,22.40
2018-09-20T14:05:10.934Z,22.40
2018-09-20T14:07:39.354Z,22.40
2018-09-20T14:10:08.058Z,22.40
2018-09-20T14:12:36.711Z,22.40
2018-09-20T14:15:05.879Z,22.40
2018-09-20T14:17:34.342Z,22.30
2018-09-20T14:20:02.868Z,22.30
2018-09-20T14:22:31.311Z,22.20
2018-09-20T14:24:59.778Z,22.10
2018-09-20T14:27:28.278Z,22.00
2018-09-20T14:29:56.703Z,21.90
2018-09-20T14:32:25.282Z,21.80
2018-09-20T14:34:53.890Z,21.80
2018-09-20T14:37:22.371Z,21.70
2018-09-20T14:39:53.885Z,21.60
2018-09-20T14:42:22.374Z,21.60
2018-09-20T14:44:50.802Z,21.60
2018-09-20T14:47:19.258Z,21.60
2018-09-20T14:49:47.768Z,21.60
2018-09-20T14:52:16.214Z,21.60
2018-09-20T14:54:44.654Z,21.60
2018-09-20T14:57:13.198Z,21.60
2018-09-20T14:59:41.630Z,21.60
2018-09-20T15:02:10.261Z,21.60
2018-09-20T15:04:38.776Z,21.60
2018-09-20T15:07:07.223Z,21.50
2018-09-20T15:09:35.659Z,21.50
2018-09-20T15:12:04.170Z,21.40
2018-09-20T15:14:32.642Z,21.30
2018-09-20T15:17:01.122Z,21.20
2018-09-20T15:19:29.759Z,21.20
2018-09-20T15:21:58.222Z,21.10
2018-09-20T15:24:26.667Z,21.10
2018-09-20T15:26:55.405Z,21.10
2018-09-20T15:29:23.878Z,21.10
2018-09-20T15:31:52.374Z,21.20
2018-09-20T15:34:20.866Z,21.10
2018-09-20T15:36:49.362Z,21.10
2018-09-20T15:39:17.838Z,21.10
2018-09-20T15:41:46.342Z,21.10
2018-09-20T15:44:14.798Z,21.10
2018-09-20T15:46:43.255Z,21.10
2018-09-20T15:49:11.746Z,21.10
2018-09-20T15:51:40.235Z,21.00
2018-09-20T15:54:08.725Z,20.90
2018-09-20T15:56:37.230Z,20.90
2018-09-20T15:59:05.670Z,20.80
2018-09-20T16:01:34.109Z,20.80
2018-09-20T16:04:02.595Z,20.70
2018-09-20T16:06:31.057Z,20.70
2018-09-20T16:08:59.514Z,20.70
2018-09-20T16:11:28.349Z,20.70
2018-09-20T16:13:56.855Z,20.70
2018-09-20T16:16:25.326Z,20.70
2018-09-20T16:18:53.802Z,20.70
2018-09-20T16:21:22.282Z,20.60
2018-09-20T16:23:50.751Z,20.60
2018-09-20T16:26:19.538Z,20.60
2018-09-20T16:28:59.039Z,20.50
2018-09-20T16:32:47.144Z,20.50
2018-09-20T16:36:26.093Z,20.50
2018-09-20T16:39:13.097Z,20.40
2018-09-20T16:41:44.634Z,20.40
2018-09-20T16:44:15.038Z,20.30
2018-09-20T16:46:43.632Z,20.30
2018-09-20T16:49:12.127Z,20.20
2018-09-20T16:51:40.654Z,20.20
2018-09-20T16:54:09.127Z,20.20
2018-09-20T16:56:37.582Z,20.10
2018-09-20T16:59:06.872Z,20.10
2018-09-20T17:01:35.357Z,20.10
2018-09-20T17:04:03.907Z,20.10
2018-09-20T17:06:41.254Z,20.00
2018-09-20T17:09:10.462Z,20.00
2018-09-20T17:11:38.902Z,19.90
2018-09-20T17:14:07.495Z,19.90
2018-09-20T17:16:35.998Z,19.90
2018-09-20T17:19:04.534Z,19.90
2018-09-20T17:21:33.059Z,19.90
2018-09-20T17:24:01.541Z,19.90
2018-09-20T17:26:30.025Z,19.90
2018-09-20T17:28:58.526Z,19.80
2018-09-20T17:31:27.451Z,19.90
2018-09-20T17:33:56.006Z,19.80
2018-09-20T17:36:25.011Z,19.80
2018-09-20T17:38:54.324Z,19.80
2018-09-20T17:41:25.930Z,19.80
2018-09-20T17:43:56.306Z,19.80
2018-09-20T17:46:24.799Z,19.80
2018-09-20T17:48:53.282Z,19.80
2018-09-20T17:51:22.095Z,19.80
2018-09-20T17:53:50.998Z,19.80
2018-09-20T17:56:20.056Z,19.80
2018-09-20T17:58:49.029Z,19.80
2018-09-20T18:01:17.488Z,19.80
2018-09-20T18:03:46.030Z,19.80
2018-09-20T18:06:14.478Z,19.70
2018-09-20T18:08:42.902Z,19.70
2018-09-20T18:11:11.446Z,19.80
2018-09-20T18:13:39.945Z,19.70
2018-09-20T18:16:08.374Z,19.70
2018-09-20T18:18:36.897Z,19.70
2018-09-20T18:21:05.438Z,19.70
2018-09-20T18:23:33.862Z,19.70
2018-09-20T18:26:02.330Z,19.70
2018-09-20T18:28:30.763Z,19.70
2018-09-20T18:30:59.414Z,19.70
2018-09-20T18:33:28.132Z,19.70
2018-09-20T18:35:56.656Z,19.70
2018-09-20T18:38:25.356Z,19.70
2018-09-20T18:40:53.874Z,19.70
2018-09-20T18:43:22.342Z,19.70
2018-09-20T18:45:50.810Z,19.70
2018-09-20T18:48:19.293Z,19.70
2018-09-20T18:50:47.950Z,19.60
2018-09-20T18:53:17.391Z,19.60
2018-09-20T18:55:45.906Z,19.60
2018-09-20T18:58:14.370Z,19.60
2018-09-20T19:00:42.822Z,19.60
2018-09-20T19:03:11.370Z,19.60
2018-09-20T19:05:39.838Z,19.60
2018-09-20T19:08:08.274Z,19.60
2018-09-20T19:10:36.799Z,19.60
2018-09-20T19:13:05.438Z,19.60
2018-09-20T19:15:34.395Z,19.60
2018-09-20T19:18:02.921Z,19.60
2018-09-20T19:20:31.554Z,19.50
2018-09-20T19:23:00.034Z,19.50
2018-09-20T19:25:28.566Z,19.50
2018-09-20T19:27:57.335Z,19.50
2018-09-20T19:30:25.815Z,19.50
2018-09-20T19:32:54.315Z,19.50
2018-09-20T19:35:22.770Z,19.50
2018-09-20T19:37:51.241Z,19.40
2018-09-20T19:40:19.767Z,19.40
2018-09-20T19:42:49.172Z,19.50
2018-09-20T19:45:17.642Z,19.40
2018-09-20T19:47:46.227Z,19.40
2018-09-20T19:50:14.720Z,19.50
2018-09-20T19:52:43.172Z,19.40
2018-09-20T19:55:11.654Z,19.40
2018-09-20T19:57:40.139Z,19.30
2018-09-20T20:00:08.666Z,19.30
2018-09-20T20:02:37.154Z,19.30
2018-09-20T20:05:05.698Z,19.30
2018-09-20T20:07:34.144Z,19.30
2018-09-20T20:10:02.799Z,19.30
2018-09-20T20:12:31.233Z,19.30
2018-09-20T20:14:59.650Z,19.30
2018-09-20T20:17:28.179Z,19.20
2018-09-20T20:19:56.625Z,19.20
2018-09-20T20:22:25.075Z,19.20
2018-09-20T20:24:53.574Z,19.20
2018-09-20T20:27:22.040Z,19.20
2018-09-20T20:29:50.499Z,19.20
2018-09-20T20:32:18.963Z,19.10
2018-09-20T20:34:47.379Z,19.10
2018-09-20T20:37:15.828Z,19.10
2018-09-20T20:39:44.333Z,19.00
2018-09-20T20:42:12.850Z,19.00
2018-09-20T20:44:41.328Z,18.90
2018-09-20T20:47:09.782Z,18.90
2018-09-20T20:49:38.305Z,18.90
2018-09-20T20:52:06.751Z,18.90
2018-09-20T20:54:35.224Z,18.80
2018-09-20T20:57:03.758Z,18.80
2018-09-20T20:59:32.210Z,18.80
2018-09-20T21:02:00.743Z,18.80
2018-09-20T21:04:29.251Z,18.80
2018-09-20T21:06:57.778Z,18.80
2018-09-20T21:09:26.263Z,18.80
2018-09-20T21:11:54.728Z,18.80
2018-09-20T21:14:23.183Z,18.70
2018-09-20T21:16:51.758Z,18.70
2018-09-20T21:19:20.337Z,18.70
2018-09-20T21:21:48.815Z,18.60
2018-09-20T21:24:17.358Z,18.70
2018-09-20T21:26:45.922Z,18.60
2018-09-20T21:29:14.406Z,18.70
2018-09-20T21:31:42.919Z,18.60
2018-09-20T21:34:11.370Z,18.60
2018-09-20T21:36:39.874Z,18.60
2018-09-20T21:39:10.514Z,18.60
2018-09-20T21:41:39.430Z,18.60
2018-09-20T21:44:07.958Z,18.60
2018-09-20T21:46:36.541Z,18.50
2018-09-20T21:51:33.166Z,18.40
2018-09-20T21:54:01.640Z,18.40
2018-09-20T21:56:30.571Z,18.40
2018-09-20T21:58:59.020Z,18.30
2018-09-20T22:01:31.682Z,18.30
2018-09-20T22:04:00.333Z,18.20
2018-09-20T22:06:28.758Z,18.20
2018-09-20T22:08:57.195Z,18.10
2018-09-20T22:11:25.626Z,18.00
2018-09-20T22:13:54.052Z,18.00
2018-09-20T22:16:22.596Z,17.90
2018-09-20T22:18:51.031Z,17.90
2018-09-20T22:21:19.466Z,17.80
2018-09-20T22:23:47.958Z,17.80
2018-09-20T22:26:16.434Z,17.80
2018-09-20T22:28:44.858Z,17.70
2018-09-20T22:31:13.361Z,17.70
2018-09-20T22:33:41.790Z,17.70
2018-09-20T22:36:10.229Z,17.70
2018-09-20T22:38:38.710Z,17.60
2018-09-20T22:41:07.143Z,17.60
2018-09-20T22:43:35.570Z,17.60
2018-09-20T22:46:04.067Z,17.50
2018-09-20T22:48:32.482Z,17.50
2018-09-20T22:51:00.927Z,17.50
2018-09-20T22:53:29.690Z,17.50
2018-09-20T22:55:58.137Z,17.50
2018-09-20T22:58:26.615Z,17.50
2018-09-20T23:00:55.274Z,17.40
2018-09-20T23:03:23.770Z,17.40
2018-09-20T23:05:52.270Z,17.40
2018-09-20T23:08:20.791Z,17.40
2018-09-20T23:10:49.967Z,17.40
2018-09-20T23:13:18.411Z,17.40
2018-09-20T23:15:47.730Z,17.50
2018-09-20T23:18:16.178Z,17.50
2018-09-20T23:20:44.646Z,17.50
2018-09-20T23:23:13.143Z,17.50
2018-09-20T23:25:42.437Z,17.50
2018-09-20T23:28:10.894Z,17.50
2018-09-20T23:30:39.439Z,17.50
2018-09-20T23:33:07.874Z,17.50
2018-09-20T23:35:36.295Z,17.50
2018-09-20T23:38:04.784Z,17.50
2018-09-20T23:40:33.210Z,17.50
2018-09-20T23:43:01.635Z,17.50
2018-09-20T23:45:30.788Z,17.50
2018-09-20T23:47:59.194Z,17.50
2018-09-20T23:50:27.622Z,17.50
2018-09-20T23:52:56.402Z,17.50
2018-09-20T23:55:24.937Z,17.50
2018-09-20T23:57:53.375Z,17.40
